Time;durP1;ratioP1;P1;durP2;ratioP2;P2;SDS_P1;SDS_P2;PMS_P1;PMS_P2;Temp;Humidity;BMP_temperature;BMP_pressure;BME280_temperature;BME280_humidity;BME280_pressure;Samples;Min_cycle;Max_cycle;Signal;HPM_P1;HPM_P2
2022/06/25 00:01:20;;;;;;;3.33;1.60;;;27.30;47.10;;;;;;4953711;28;20075;-47
2022/06/25 00:03:46;;;;;;;2.42;1.27;;;27.30;47.10;;;;;;4955131;28;20031;-46
2022/06/25 00:06:12;;;;;;;1.55;0.95;;;27.30;47.10;;;;;;4955608;28;20110;-48
2022/06/25 00:08:38;;;;;;;2.05;1.23;;;27.30;47.20;;;;;;4955177;28;20034;-47
2022/06/25 00:11:05;;;;;;;3.42;1.33;;;27.30;47.10;;;;;;4953758;28;20643;-48
2022/06/25 00:13:33;;;;;;;2.22;1.10;;;27.20;47.20;;;;;;4954370;28;20027;-47
2022/06/25 00:15:59;;;;;;;3.22;1.42;;;27.30;47.10;;;;;;4953922;28;20027;-47
2022/06/25 00:18:25;;;;;;;1.42;0.80;;;27.30;47.10;;;;;;4955267;28;20049;-47
2022/06/25 00:20:51;;;;;;;3.15;1.20;;;27.30;47.10;;;;;;4955142;28;20027;-47
2022/06/25 00:23:17;;;;;;;2.88;1.33;;;27.20;47.10;;;;;;4952354;28;20038;-48
2022/06/25 00:25:43;;;;;;;3.67;1.45;;;27.20;47.10;;;;;;4953977;28;20035;-47
2022/06/25 00:28:09;;;;;;;2.97;1.23;;;27.20;47.10;;;;;;4953738;28;20608;-48
2022/06/25 00:30:35;;;;;;;1.83;0.77;;;27.20;47.10;;;;;;4954931;28;20026;-47
2022/06/25 00:33:01;;;;;;;2.22;1.00;;;27.20;47.10;;;;;;4953443;28;20030;-48
2022/06/25 00:35:27;;;;;;;2.22;1.00;;;27.20;47.10;;;;;;4954733;28;20027;-47
2022/06/25 00:37:53;;;;;;;2.10;0.95;;;27.20;47.10;;;;;;4954086;28;20019;-47
2022/06/25 00:40:18;;;;;;;1.75;0.80;;;27.20;47.10;;;;;;4954269;28;20031;-48
2022/06/25 00:42:51;;;;;;;2.08;0.85;;;27.20;47.10;;;;;;4954166;28;20023;-48
2022/06/25 00:45:17;;;;;;;1.65;0.90;;;27.20;47.00;;;;;;4953144;28;20035;-47
2022/06/25 00:47:43;;;;;;;1.58;0.70;;;27.20;47.10;;;;;;4954558;28;20028;-48
2022/06/25 00:50:09;;;;;;;2.42;0.93;;;27.20;47.10;;;;;;4953939;28;20025;-47
2022/06/25 00:52:41;;;;;;;1.75;0.70;;;27.20;47.20;;;;;;4954729;28;20026;-48
2022/06/25 00:55:12;;;;;;;2.25;0.73;;;27.20;47.20;;;;;;4954339;28;20019;-47
2022/06/25 00:57:44;;;;;;;1.80;0.80;;;27.20;47.20;;;;;;4953592;28;20026;-48
2022/06/25 01:00:15;;;;;;;1.98;1.25;;;27.20;47.20;;;;;;4954489;28;20076;-47
2022/06/25 01:02:42;;;;;;;1.50;0.70;;;27.20;47.20;;;;;;4953797;28;20046;-48
2022/06/25 01:05:09;;;;;;;1.33;0.75;;;27.20;47.30;;;;;;4952040;28;20602;-47
2022/06/25 01:07:38;;;;;;;3.42;1.05;;;27.20;47.30;;;;;;4953523;28;20443;-47
2022/06/25 01:10:09;;;;;;;1.30;0.73;;;27.20;47.30;;;;;;4953309;28;20047;-46
2022/06/25 01:12:35;;;;;;;2.15;0.80;;;27.20;47.30;;;;;;4953218;28;20030;-47
2022/06/25 01:15:08;;;;;;;1.92;0.75;;;27.20;47.20;;;;;;4954089;28;20027;-48
2022/06/25 01:17:46;;;;;;;1.90;0.85;;;27.20;47.20;;;;;;4954636;28;20027;-47
2022/06/25 01:20:13;;;;;;;1.25;0.70;;;27.20;47.30;;;;;;4954285;28;20154;-52
2022/06/25 01:22:39;;;;;;;1.70;0.80;;;27.20;47.10;;;;;;4952528;28;20691;-47
2022/06/25 01:25:10;;;;;;;1.67;0.80;;;27.20;47.20;;;;;;4952381;28;20110;-47
2022/06/25 01:27:36;;;;;;;1.83;0.70;;;27.20;46.90;;;;;;4953877;28;20365;-47
2022/06/25 01:30:04;;;;;;;1.45;0.73;;;27.10;46.90;;;;;;4958148;28;20334;-47
2022/06/25 01:32:30;;;;;;;1.25;0.60;;;27.20;47.20;;;;;;4957464;28;20027;-47
2022/06/25 01:34:55;;;;;;;1.30;0.70;;;27.20;46.90;;;;;;4957924;28;20373;-47
2022/06/25 01:37:21;;;;;;;2.33;0.93;;;27.10;46.80;;;;;;4957786;28;20713;-47
2022/06/25 01:39:55;;;;;;;1.85;0.75;;;27.20;46.80;;;;;;4957576;28;20752;-48
2022/06/25 01:45:10;;;;;;;1.65;0.60;;;27.20;46.90;;;;;;4957108;28;20089;-47
2022/06/25 01:47:37;;;;;;;1.83;0.70;;;27.20;46.90;;;;;;4957633;28;20035;-48
2022/06/25 01:50:03;;;;;;;1.48;0.52;;;27.20;46.60;;;;;;4957357;28;20035;-47
2022/06/25 01:52:29;;;;;;;0.85;0.40;;;27.10;46.80;;;;;;4957006;28;20030;-47
2022/06/25 01:54:54;;;;;;;0.65;0.40;;;27.10;46.50;;;;;;4958028;28;20048;-47
2022/06/25 01:57:20;;;;;;;1.52;0.50;;;27.10;46.30;;;;;;4957319;28;20023;-47
2022/06/25 01:59:49;;;;;;;1.90;0.65;;;27.10;46.30;;;;;;4957767;28;20031;-46
2022/06/25 02:02:15;;;;;;;1.67;0.70;;;27.10;46.20;;;;;;4955021;28;20678;-46
2022/06/25 02:04:41;;;;;;;0.65;0.40;;;27.10;46.10;;;;;;4957005;28;20027;-47
2022/06/25 02:07:07;;;;;;;1.38;0.65;;;27.10;46.10;;;;;;4957736;28;20050;-48
2022/06/25 02:09:33;;;;;;;1.75;0.60;;;27.10;46.10;;;;;;4957432;28;20046;-47
2022/06/25 02:11:58;;;;;;;0.60;0.30;;;27.10;46.20;;;;;;4955409;28;20111;-47
2022/06/25 02:14:26;;;;;;;0.98;0.40;;;27.10;46.00;;;;;;4956564;28;20167;-47
2022/06/25 02:16:53;;;;;;;0.93;0.47;;;27.10;45.90;;;;;;4957901;28;20019;-47
2022/06/25 02:19:19;;;;;;;1.23;0.50;;;27.10;46.10;;;;;;4956955;28;20114;-47
2022/06/25 02:21:45;;;;;;;2.65;0.50;;;27.10;46.10;;;;;;4956831;28;20123;-48
2022/06/25 02:24:10;;;;;;;3.47;0.90;;;27.10;46.10;;;;;;4956727;28;20034;-47
2022/06/25 02:26:36;;;;;;;1.13;0.38;;;27.10;45.70;;;;;;4957134;28;20090;-47
2022/06/25 02:29:02;;;;;;;0.60;0.30;;;27.10;45.70;;;;;;4956483;28;20031;-47
2022/06/25 02:31:29;;;;;;;1.25;0.40;;;27.10;45.50;;;;;;4956418;28;20066;-48
2022/06/25 02:33:55;;;;;;;0.88;0.30;;;27.10;45.60;;;;;;4955752;28;20029;-47
2022/06/25 02:36:20;;;;;;;0.95;0.30;;;27.10;46.00;;;;;;4956334;28;20023;-48
2022/06/25 02:38:46;;;;;;;0.70;0.20;;;27.10;45.90;;;;;;4955697;28;20037;-46
2022/06/25 02:41:12;;;;;;;0.93;0.20;;;27.10;45.80;;;;;;4956003;28;20030;-47
2022/06/25 02:43:38;;;;;;;0.43;0.20;;;27.10;45.80;;;;;;4956088;28;20027;-48
2022/06/25 02:46:04;;;;;;;2.58;0.30;;;27.10;45.40;;;;;;4956461;28;20042;-48
2022/06/25 02:48:29;;;;;;;0.65;0.30;;;27.10;45.80;;;;;;4956434;28;20034;-48
2022/06/25 02:50:55;;;;;;;1.00;0.30;;;27.10;45.70;;;;;;4956339;28;20626;-47
2022/06/25 02:53:21;;;;;;;1.58;0.20;;;27.00;45.70;;;;;;4956014;28;20039;-48
2022/06/25 03:01:15;;;;;;;5.10;0.50;;;27.00;45.80;;;;;;4954493;28;20050;-47
2022/06/25 03:03:41;;;;;;;2.40;0.63;;;27.00;45.70;;;;;;4955660;28;20657;-47
2022/06/25 03:06:06;;;;;;;2.33;0.45;;;27.00;45.90;;;;;;4956151;28;20050;-48
2022/06/25 03:08:32;;;;;;;0.70;0.25;;;27.00;45.80;;;;;;4956493;28;20029;-48
2022/06/25 03:10:58;;;;;;;1.05;0.40;;;26.90;45.10;;;;;;4956416;28;20026;-47
2022/06/25 03:13:24;;;;;;;0.60;0.20;;;27.00;45.90;;;;;;4955297;28;20109;-47
2022/06/25 03:15:49;;;;;;;0.40;0.10;;;27.00;45.70;;;;;;4953301;28;20042;-47
2022/06/25 03:18:15;;;;;;;1.67;0.30;;;27.00;45.80;;;;;;4955185;28;20442;-48
2022/06/25 03:20:41;;;;;;;0.82;0.20;;;26.90;45.20;;;;;;4955099;28;20042;-47
2022/06/25 03:23:07;;;;;;;0.43;0.10;;;26.90;45.20;;;;;;4955650;28;20703;-47
2022/06/25 03:25:32;;;;;;;1.30;0.22;;;26.90;45.10;;;;;;4955931;28;20030;-47
2022/06/25 03:27:58;;;;;;;0.20;0.10;;;26.90;44.70;;;;;;4954020;28;20075;-47
2022/06/25 03:30:24;;;;;;;0.57;0.10;;;26.90;45.00;;;;;;4955252;28;20035;-47
2022/06/25 03:32:50;;;;;;;1.27;0.30;;;26.90;45.00;;;;;;4955330;28;20023;-46
2022/06/25 03:35:15;;;;;;;0.55;0.25;;;26.90;44.90;;;;;;4952637;28;20027;-47
2022/06/25 03:37:41;;;;;;;1.13;0.20;;;26.90;44.80;;;;;;4955635;28;20023;-47
2022/06/25 03:40:07;;;;;;;0.22;0.10;;;26.90;44.90;;;;;;4955120;28;20022;-47
2022/06/25 03:42:33;;;;;;;0.63;0.20;;;26.90;44.90;;;;;;4955039;28;20059;-47
2022/06/25 03:44:59;;;;;;;0.50;0.20;;;26.90;44.80;;;;;;4954825;28;20141;-47
2022/06/25 03:47:24;;;;;;;1.63;0.15;;;26.90;44.90;;;;;;4955692;28;20027;-47
2022/06/25 03:49:50;;;;;;;0.65;0.20;;;26.90;45.00;;;;;;4954584;28;20033;-47
2022/06/25 03:52:16;;;;;;;0.10;0.10;;;26.90;44.80;;;;;;4954887;28;20034;-47
2022/06/25 03:54:42;;;;;;;0.22;0.08;;;26.90;44.80;;;;;;4954177;28;20015;-46
2022/06/25 03:57:07;;;;;;;0.10;0.10;;;26.90;45.00;;;;;;4955024;28;20031;-46
2022/06/25 03:59:33;;;;;;;0.32;0.10;;;26.90;44.90;;;;;;4953747;28;20026;-47
2022/06/25 04:01:59;;;;;;;0.20;0.00;;;26.90;44.90;;;;;;4955079;28;20048;-47
2022/06/25 04:04:25;;;;;;;0.50;0.10;;;26.90;45.00;;;;;;4955025;28;20039;-47
2022/06/25 04:06:50;;;;;;;0.63;0.10;;;26.90;44.90;;;;;;4953959;28;20427;-47
2022/06/25 04:09:16;;;;;;;0.65;0.25;;;26.90;44.90;;;;;;4954956;28;20031;-47
2022/06/25 04:11:42;;;;;;;0.40;0.10;;;26.90;45.10;;;;;;4955040;28;20027;-46
2022/06/25 04:14:08;;;;;;;1.10;0.25;;;26.90;44.90;;;;;;4954331;28;20026;-47
2022/06/25 04:16:33;;;;;;;0.28;0.10;;;26.90;44.90;;;;;;4950782;28;20162;-47
2022/06/25 04:18:59;;;;;;;0.08;0.00;;;26.90;44.90;;;;;;4954864;28;20015;-46
2022/06/25 04:21:26;;;;;;;0.25;0.10;;;26.90;44.90;;;;;;4953584;28;20046;-47
2022/06/25 04:23:52;;;;;;;0.90;0.10;;;26.90;44.80;;;;;;4953164;28;20023;-46
2022/06/25 04:26:18;;;;;;;0.30;0.10;;;26.90;45.50;;;;;;4955081;28;20046;-47
2022/06/25 04:31:28;;;;;;;0.43;0.10;;;26.90;44.70;;;;;;4953755;28;20142;-47
2022/06/25 04:33:54;;;;;;;0.30;0.10;;;26.80;44.70;;;;;;4954440;28;20047;-47
2022/06/25 04:36:20;;;;;;;0.00;0.00;;;26.90;44.70;;;;;;4954006;28;20023;-47
2022/06/25 04:38:46;;;;;;;0.40;0.10;;;26.80;44.70;;;;;;4954708;28;20269;-47
2022/06/25 04:41:12;;;;;;;0.47;0.17;;;26.80;44.80;;;;;;4954529;28;20035;-46
2022/06/25 04:43:38;;;;;;;0.63;0.10;;;26.90;44.90;;;;;;4953620;28;20077;-47
2022/06/25 04:46:04;;;;;;;0.10;0.10;;;26.90;44.80;;;;;;4954552;28;20085;-48
2022/06/25 04:48:29;;;;;;;0.30;0.10;;;26.80;44.80;;;;;;4954347;28;20028;-47
2022/06/25 04:50:55;;;;;;;0.20;0.08;;;26.80;44.90;;;;;;4954045;28;20139;-47
2022/06/25 04:53:21;;;;;;;0.10;0.10;;;26.80;44.70;;;;;;4951024;28;20023;-47
2022/06/25 04:55:46;;;;;;;0.10;0.10;;;26.80;44.80;;;;;;4954263;28;20027;-46
2022/06/25 04:58:12;;;;;;;0.30;0.10;;;26.80;44.80;;;;;;4954159;28;20152;-47
2022/06/25 05:00:38;;;;;;;0.10;0.00;;;26.80;44.80;;;;;;4953325;28;20105;-47
2022/06/25 05:03:04;;;;;;;1.20;0.10;;;26.80;44.90;;;;;;4957114;28;20098;-47
2022/06/25 05:05:29;;;;;;;0.30;0.10;;;26.80;45.00;;;;;;4958008;28;20033;-47
2022/06/25 05:07:55;;;;;;;0.47;0.10;;;26.80;45.00;;;;;;4958264;28;20030;-46
2022/06/25 05:10:21;;;;;;;0.73;0.10;;;26.80;44.90;;;;;;4958366;28;20139;-47
2022/06/25 05:15:31;;;;;;;0.30;0.10;;;26.80;44.90;;;;;;4957539;28;20037;-47
2022/06/25 05:17:57;;;;;;;0.15;0.10;;;26.80;44.80;;;;;;4957302;28;20125;-48
2022/06/25 05:20:23;;;;;;;0.32;0.00;;;26.80;44.70;;;;;;4955140;28;20031;-47
2022/06/25 05:22:48;;;;;;;0.40;0.10;;;26.80;44.70;;;;;;4957124;28;20110;-47
2022/06/25 05:25:14;;;;;;;0.25;0.10;;;26.80;44.90;;;;;;4955157;28;20062;-46
2022/06/25 05:27:40;;;;;;;0.88;0.25;;;26.80;44.80;;;;;;4955161;28;20099;-46
2022/06/25 05:30:07;;;;;;;0.10;0.10;;;26.80;45.00;;;;;;4954754;28;20018;-46
2022/06/25 05:32:32;;;;;;;0.10;0.05;;;26.80;44.90;;;;;;4956606;28;20041;-47
2022/06/25 05:34:58;;;;;;;0.52;0.10;;;26.80;45.00;;;;;;4957992;28;20027;-47
2022/06/25 05:37:24;;;;;;;0.30;0.13;;;26.80;45.00;;;;;;4957746;28;20546;-47
2022/06/25 05:39:51;;;;;;;0.40;0.15;;;26.60;45.80;;;;;;4955806;28;20027;-46
2022/06/25 05:42:17;;;;;;;0.93;0.30;;;26.30;46.50;;;;;;4955894;28;20075;-48
2022/06/25 05:44:43;;;;;;;0.22;0.15;;;25.90;47.60;;;;;;4955680;28;20539;-49
2022/06/25 05:47:09;;;;;;;0.98;0.30;;;25.60;48.60;;;;;;4956705;28;20019;-48
2022/06/25 05:49:35;;;;;;;0.25;0.10;;;25.30;49.30;;;;;;4957463;28;20055;-48
2022/06/25 05:52:01;;;;;;;0.50;0.30;;;25.00;50.00;;;;;;4956381;28;20030;-48
2022/06/25 05:54:27;;;;;;;0.70;0.20;;;24.80;50.90;;;;;;4956190;28;20023;-48
2022/06/25 05:56:53;;;;;;;0.80;0.10;;;24.60;51.30;;;;;;4957351;28;20030;-49
2022/06/25 05:59:19;;;;;;;0.90;0.40;;;24.50;51.50;;;;;;4957448;28;20680;-48
2022/06/25 06:01:44;;;;;;;0.88;0.20;;;24.40;51.70;;;;;;4952282;28;20039;-47
2022/06/25 06:04:10;;;;;;;0.65;0.20;;;24.30;52.10;;;;;;4947012;29;20036;-47
2022/06/25 06:06:36;;;;;;;0.57;0.10;;;24.20;52.20;;;;;;4947074;29;20407;-46
2022/06/25 06:09:02;;;;;;;1.10;0.25;;;24.10;52.70;;;;;;4951740;28;20046;-46
2022/06/25 06:11:27;;;;;;;0.77;0.20;;;24.10;52.80;;;;;;4956012;28;20031;-48
2022/06/25 06:13:53;;;;;;;1.48;0.30;;;24.00;53.30;;;;;;4954577;28;21382;-47
2022/06/25 06:16:19;;;;;;;0.50;0.30;;;23.90;53.70;;;;;;4955725;28;20102;-47
2022/06/25 06:18:44;;;;;;;1.38;0.30;;;23.80;53.50;;;;;;4957655;28;20113;-46
2022/06/25 06:21:10;;;;;;;2.13;0.32;;;23.80;54.30;;;;;;4956420;28;20033;-47
2022/06/25 06:23:36;;;;;;;0.75;0.20;;;23.60;53.90;;;;;;4956084;28;20027;-46
2022/06/25 06:26:02;;;;;;;0.65;0.20;;;23.40;54.80;;;;;;4952871;28;20034;-46
2022/06/25 06:28:27;;;;;;;1.15;0.40;;;23.20;55.30;;;;;;4946357;28;20035;-47
2022/06/25 06:30:53;;;;;;;1.67;0.30;;;23.10;55.70;;;;;;4946514;28;20496;-47
2022/06/25 06:33:19;;;;;;;1.20;0.30;;;23.00;56.20;;;;;;4945252;29;20023;-46
2022/06/25 06:35:44;;;;;;;2.55;0.40;;;22.80;56.30;;;;;;4945215;29;20035;-47
2022/06/25 06:38:10;;;;;;;1.08;0.30;;;22.70;57.10;;;;;;4946492;29;20072;-47
2022/06/25 06:40:36;;;;;;;0.82;0.40;;;22.60;57.40;;;;;;4947166;29;20038;-48
2022/06/25 06:43:03;;;;;;;0.55;0.22;;;22.60;57.70;;;;;;4932849;28;20034;-49
2022/06/25 06:45:29;;;;;;;1.23;0.25;;;22.70;57.80;;;;;;4933519;28;20095;-46
2022/06/25 06:47:55;;;;;;;2.03;0.40;;;22.80;57.50;;;;;;4942830;29;20436;-47
2022/06/25 06:50:20;;;;;;;1.02;0.25;;;22.80;57.20;;;;;;4946073;29;20027;-46
2022/06/25 06:52:46;;;;;;;1.67;0.47;;;22.70;57.30;;;;;;4945665;29;20633;-45
2022/06/25 06:55:12;;;;;;;0.70;0.22;;;22.70;57.70;;;;;;4937026;28;20130;-46
2022/06/25 06:57:37;;;;;;;2.05;0.40;;;22.60;57.60;;;;;;4937297;28;20086;-47
2022/06/25 07:00:06;;;;;;;0.75;0.30;;;22.50;58.00;;;;;;4944641;28;20034;-46
2022/06/25 07:02:32;;;;;;;0.95;0.30;;;22.40;58.40;;;;;;4946335;28;20692;-47
2022/06/25 07:04:58;;;;;;;1.02;0.35;;;22.30;58.30;;;;;;4937660;28;20039;-47
2022/06/25 07:07:24;;;;;;;0.47;0.25;;;22.20;58.90;;;;;;4927025;29;20480;-45
2022/06/25 07:09:49;;;;;;;0.90;0.30;;;22.10;59.00;;;;;;4926823;29;20669;-47
2022/06/25 07:12:15;;;;;;;0.73;0.30;;;22.20;59.30;;;;;;4932822;29;20105;-47
2022/06/25 07:14:41;;;;;;;1.42;0.50;;;22.10;59.60;;;;;;4946196;28;20027;-46
2022/06/25 07:17:07;;;;;;;0.80;0.40;;;22.00;59.50;;;;;;4945953;28;20039;-46
2022/06/25 07:19:33;;;;;;;1.67;0.60;;;21.90;60.00;;;;;;4945632;29;20032;-45
2022/06/25 07:21:59;;;;;;;1.23;0.32;;;22.00;60.10;;;;;;4945781;28;20039;-45
2022/06/25 07:24:25;;;;;;;0.95;0.47;;;22.00;60.10;;;;;;4935170;29;20747;-47
2022/06/25 07:26:51;;;;;;;1.33;0.35;;;21.90;60.00;;;;;;4941496;29;20136;-49
2022/06/25 07:29:17;;;;;;;1.90;0.40;;;22.00;59.40;;;;;;4944410;28;20039;-48
2022/06/25 07:31:43;;;;;;;0.88;0.40;;;22.10;59.00;;;;;;4935545;29;20524;-47
2022/06/25 07:34:09;;;;;;;0.57;0.22;;;22.30;58.70;;;;;;4942511;29;20023;-48
2022/06/25 07:36:34;;;;;;;0.90;0.38;;;22.50;58.00;;;;;;4925853;29;20032;-46
2022/06/25 07:39:00;;;;;;;0.85;0.40;;;22.60;57.80;;;;;;4925731;29;20043;-48
2022/06/25 07:41:27;;;;;;;1.08;0.30;;;22.70;57.10;;;;;;4949533;28;20043;-48
2022/06/25 07:43:53;;;;;;;1.23;0.30;;;22.80;57.10;;;;;;4944886;28;20034;-48
2022/06/25 07:46:19;;;;;;;0.88;0.20;;;23.00;57.30;;;;;;4951079;28;20043;-48
2022/06/25 07:48:45;;;;;;;0.50;0.20;;;23.10;57.20;;;;;;4953754;28;20041;-47
2022/06/25 07:54:12;;;;;;;0.95;0.32;;;23.20;56.40;;;;;;4911442;29;20103;-49
2022/06/25 07:56:38;;;;;;;0.88;0.47;;;23.40;56.30;;;;;;4939854;28;20462;-48
2022/06/25 07:59:03;;;;;;;0.68;0.40;;;23.50;56.70;;;;;;4945325;28;20050;-51
2022/06/25 08:01:29;;;;;;;1.33;0.50;;;23.50;56.40;;;;;;4945564;29;20031;-49
2022/06/25 08:03:55;;;;;;;1.40;0.50;;;23.60;56.30;;;;;;4944757;29;20283;-48
2022/06/25 08:06:21;;;;;;;1.15;0.30;;;23.70;56.30;;;;;;4925674;29;20038;-49
2022/06/25 08:08:46;;;;;;;1.08;0.30;;;23.70;56.10;;;;;;4941612;29;20042;-49
2022/06/25 08:11:12;;;;;;;1.13;0.40;;;23.90;56.20;;;;;;4945040;29;20456;-49
2022/06/25 08:13:38;;;;;;;1.20;0.43;;;23.90;55.90;;;;;;4944903;28;20032;-49
2022/06/25 08:16:09;;;;;;;1.13;0.60;;;24.00;55.70;;;;;;4944828;28;20031;-47
2022/06/25 08:18:36;;;;;;;1.13;0.43;;;24.10;55.30;;;;;;4945123;28;20037;-47
2022/06/25 08:21:02;;;;;;;1.40;0.60;;;24.10;55.30;;;;;;4944934;28;20027;-49
2022/06/25 08:23:28;;;;;;;1.27;0.50;;;24.20;55.20;;;;;;4945249;28;20041;-48
2022/06/25 08:25:54;;;;;;;2.22;0.55;;;24.20;55.10;;;;;;4944846;29;20106;-47
2022/06/25 08:28:20;;;;;;;1.25;0.40;;;24.30;54.90;;;;;;4945607;29;20092;-46
2022/06/25 08:30:46;;;;;;;0.95;0.45;;;24.30;54.70;;;;;;4944526;28;20027;-48
2022/06/25 08:33:12;;;;;;;0.80;0.38;;;24.40;54.40;;;;;;4943831;29;20038;-49
2022/06/25 08:35:37;;;;;;;2.05;0.38;;;24.50;54.50;;;;;;4937005;28;20027;-49
2022/06/25 08:38:04;;;;;;;0.93;0.30;;;24.50;54.60;;;;;;4950836;28;20031;-49
2022/06/25 08:40:30;;;;;;;0.85;0.38;;;24.60;54.30;;;;;;4951613;28;20026;-49
2022/06/25 08:42:57;;;;;;;0.75;0.45;;;24.60;53.70;;;;;;4951535;28;20051;-49
2022/06/25 08:45:22;;;;;;;1.52;0.50;;;24.70;53.90;;;;;;4950777;28;20086;-48
2022/06/25 08:47:50;;;;;;;1.13;0.35;;;24.70;53.90;;;;;;4951244;28;20142;-49
2022/06/25 08:50:21;;;;;;;1.33;0.40;;;24.80;53.50;;;;;;4951111;28;20491;-49
2022/06/25 08:52:55;;;;;;;1.35;0.40;;;24.80;53.30;;;;;;4951040;28;20296;-48
2022/06/25 08:55:36;;;;;;;1.27;0.40;;;24.90;53.30;;;;;;4956563;28;20033;-48
2022/06/25 08:58:02;;;;;;;1.08;0.47;;;24.90;53.30;;;;;;4957911;28;20059;-49
2022/06/25 09:00:34;;;;;;;0.52;0.30;;;25.00;53.20;;;;;;4959360;28;20057;-49
2022/06/25 09:03:00;;;;;;;3.40;0.57;;;25.00;53.20;;;;;;4959156;28;20019;-48
2022/06/25 09:05:31;;;;;;;0.75;0.32;;;25.00;53.00;;;;;;4959784;28;20031;-49
2022/06/25 09:07:58;;;;;;;1.42;0.60;;;25.10;53.20;;;;;;4960485;28;20208;-49
2022/06/25 09:10:25;;;;;;;0.80;0.30;;;25.10;53.20;;;;;;4957831;28;20063;-48
2022/06/25 09:12:53;;;;;;;1.17;0.40;;;25.20;52.80;;;;;;4960252;28;20030;-48
2022/06/25 09:15:24;;;;;;;2.88;0.40;;;25.20;52.80;;;;;;4954526;28;20023;-48
2022/06/25 09:17:51;;;;;;;2.50;0.55;;;25.20;52.80;;;;;;4950948;28;20051;-49
2022/06/25 09:20:18;;;;;;;0.70;0.43;;;25.20;52.80;;;;;;4950104;28;20027;-48
2022/06/25 09:23:00;;;;;;;0.57;0.35;;;25.30;52.80;;;;;;4936422;28;20039;-47
2022/06/25 09:25:28;;;;;;;0.98;0.40;;;25.30;52.40;;;;;;4932190;29;20046;-45
2022/06/25 09:27:56;;;;;;;1.08;0.45;;;25.30;52.10;;;;;;4931468;29;20046;-48
2022/06/25 09:30:24;;;;;;;0.75;0.40;;;25.40;51.60;;;;;;4941128;29;20491;-48
2022/06/25 09:32:54;;;;;;;1.58;0.43;;;25.40;51.50;;;;;;4950104;28;20027;-47
2022/06/25 09:35:33;;;;;;;1.85;0.35;;;25.40;51.90;;;;;;4936962;29;20020;-48
2022/06/25 09:38:12;;;;;;;1.17;0.40;;;25.50;51.90;;;;;;4931418;29;20495;-48
2022/06/25 09:40:39;;;;;;;1.10;0.45;;;25.50;51.90;;;;;;4931250;29;20075;-46
2022/06/25 09:43:35;;;;;;;0.88;0.40;;;25.50;51.60;;;;;;4931627;29;20024;-47
2022/06/25 09:46:05;;;;;;;1.65;0.60;;;25.60;51.40;;;;;;4941178;28;20735;-47
2022/06/25 09:48:33;;;;;;;1.55;0.43;;;25.50;51.30;;;;;;4947009;28;20058;-46
2022/06/25 09:51:26;;;;;;;2.50;0.50;;;25.60;51.20;;;;;;4947850;28;20580;-46
2022/06/25 09:54:01;;;;;;;0.88;0.22;;;25.60;50.80;;;;;;4946993;28;20062;-49
2022/06/25 09:56:31;;;;;;;0.80;0.30;;;25.60;51.00;;;;;;4947687;28;20561;-53
2022/06/25 09:58:57;;;;;;;1.02;0.38;;;25.70;51.40;;;;;;4950296;28;20023;-50
2022/06/25 10:01:28;;;;;;;0.93;0.40;;;25.70;51.40;;;;;;4955426;28;20034;-51
2022/06/25 10:03:55;;;;;;;1.00;0.30;;;25.70;51.60;;;;;;4955233;28;20027;-48
2022/06/25 10:06:23;;;;;;;1.23;0.55;;;25.70;51.30;;;;;;4958691;28;20031;-50
2022/06/25 10:08:56;;;;;;;1.15;0.40;;;25.70;51.30;;;;;;4956796;28;20046;-45
2022/06/25 10:11:27;;;;;;;1.85;0.52;;;25.70;50.90;;;;;;4946390;28;20086;-46
2022/06/25 10:13:53;;;;;;;0.80;0.30;;;25.70;50.40;;;;;;4946610;28;20570;-46
2022/06/25 10:16:21;;;;;;;1.35;0.47;;;25.80;50.50;;;;;;4946026;28;20529;-45
2022/06/25 10:18:48;;;;;;;0.95;0.40;;;25.80;50.00;;;;;;4942416;28;20115;-46
2022/06/25 10:21:14;;;;;;;0.80;0.30;;;25.80;50.20;;;;;;4935188;28;20436;-46
2022/06/25 10:23:41;;;;;;;1.10;0.40;;;25.80;49.90;;;;;;4943893;28;20482;-49
2022/06/25 10:26:08;;;;;;;1.67;0.50;;;25.80;50.70;;;;;;4946465;28;20175;-50
2022/06/25 10:28:37;;;;;;;0.82;0.30;;;25.80;51.00;;;;;;4939741;28;20034;-50
2022/06/25 10:31:10;;;;;;;2.55;0.50;;;25.90;50.70;;;;;;4947243;28;20043;-49
2022/06/25 10:33:52;;;;;;;1.38;0.60;;;25.90;51.30;;;;;;4946882;28;20595;-49
2022/06/25 10:36:18;;;;;;;0.90;0.40;;;25.90;50.90;;;;;;4928172;29;20116;-49
2022/06/25 10:38:44;;;;;;;1.80;0.50;;;25.90;50.80;;;;;;4927371;29;20035;-49
2022/06/25 10:43:58;;;;;;;2.25;0.68;;;25.90;50.70;;;;;;4942027;28;20047;-49
2022/06/25 10:46:37;;;;;;;0.65;0.30;;;25.90;51.20;;;;;;4946553;28;20043;-48
2022/06/25 10:49:17;;;;;;;0.93;0.43;;;26.00;51.50;;;;;;4946887;28;20046;-49
2022/06/25 10:51:49;;;;;;;1.30;0.50;;;26.00;51.70;;;;;;4929517;29;20038;-49
2022/06/25 10:54:36;;;;;;;0.50;0.30;;;25.90;51.00;;;;;;4929159;29;20085;-49
2022/06/25 10:57:04;;;;;;;1.02;0.40;;;26.00;51.40;;;;;;4946750;28;20044;-48
2022/06/25 10:59:41;;;;;;;1.10;0.40;;;26.00;51.10;;;;;;4932461;28;20387;-49
2022/06/25 11:02:12;;;;;;;0.95;0.40;;;26.00;50.70;;;;;;4946056;29;20031;-49
2022/06/25 11:04:38;;;;;;;0.47;0.40;;;26.00;50.70;;;;;;4945853;28;20039;-49
2022/06/25 11:07:17;;;;;;;1.60;0.40;;;26.00;50.80;;;;;;4946017;28;20149;-48
2022/06/25 11:10:00;;;;;;;0.65;0.30;;;26.10;50.40;;;;;;4946549;29;20055;-48
2022/06/25 11:12:28;;;;;;;1.15;0.30;;;26.10;50.30;;;;;;4945766;28;20038;-49
2022/06/25 11:15:13;;;;;;;1.35;0.40;;;26.00;50.00;;;;;;4953818;28;20023;-48
2022/06/25 11:17:39;;;;;;;0.75;0.30;;;26.10;50.10;;;;;;4954267;28;20027;-48
2022/06/25 11:20:10;;;;;;;0.60;0.30;;;26.10;49.70;;;;;;4944937;28;20021;-49
2022/06/25 11:22:47;;;;;;;1.17;0.30;;;26.10;49.60;;;;;;4946263;28;20185;-49
2022/06/25 11:30:43;;;;;;;0.85;0.35;;;26.10;49.10;;;;;;4944434;28;20030;-50
2022/06/25 11:33:09;;;;;;;1.05;0.60;;;25.90;48.60;;;;;;4938068;28;20075;-49
2022/06/25 11:35:44;;;;;;;1.35;0.70;;;25.70;49.50;;;;;;4938480;29;20031;-49
2022/06/25 11:38:19;;;;;;;1.75;0.90;;;25.50;49.60;;;;;;4945473;28;20024;-50
2022/06/25 11:40:46;;;;;;;2.88;1.30;;;25.40;49.50;;;;;;4943787;29;20028;-49
2022/06/25 11:43:13;;;;;;;3.92;2.10;;;25.20;50.60;;;;;;4943957;29;20082;-49
2022/06/25 11:46:13;;;;;;;3.17;1.70;;;25.20;51.20;;;;;;4944823;28;20035;-50
2022/06/25 11:48:39;;;;;;;2.40;1.00;;;25.10;51.40;;;;;;4933109;28;20483;-50
2022/06/25 11:51:05;;;;;;;2.67;1.42;;;25.00;50.10;;;;;;4945133;29;20032;-49
2022/06/25 11:53:34;;;;;;;3.65;1.83;;;24.80;51.90;;;;;;4945149;29;20019;-49
2022/06/25 11:56:02;;;;;;;3.53;1.65;;;24.80;51.90;;;;;;4942802;29;20027;-49
2022/06/25 11:58:31;;;;;;;6.25;2.42;;;24.70;51.80;;;;;;4944735;28;20023;-47
2022/06/25 12:01:02;;;;;;;2.00;1.10;;;24.70;52.40;;;;;;4942026;28;20222;-49
2022/06/25 12:03:29;;;;;;;1.95;0.88;;;24.60;52.40;;;;;;4943402;29;20039;-50
2022/06/25 12:05:57;;;;;;;2.55;0.80;;;24.60;52.20;;;;;;4945270;28;20039;-49
2022/06/25 12:08:24;;;;;;;0.85;0.55;;;24.60;52.50;;;;;;4939844;28;20099;-50
2022/06/25 12:10:51;;;;;;;0.60;0.40;;;24.40;51.50;;;;;;4934529;28;20507;-48
2022/06/25 12:13:21;;;;;;;0.82;0.40;;;24.30;51.90;;;;;;4950751;28;20706;-50
2022/06/25 12:15:47;;;;;;;1.35;0.50;;;24.20;51.80;;;;;;4953678;28;20031;-49
2022/06/25 12:18:13;;;;;;;1.40;0.60;;;24.10;52.20;;;;;;4951795;28;20049;-49
2022/06/25 12:20:56;;;;;;;1.48;0.40;;;24.00;52.40;;;;;;4947023;28;20110;-49
2022/06/25 12:23:22;;;;;;;0.65;0.30;;;23.90;53.20;;;;;;4944628;28;20102;-48
2022/06/25 12:25:48;;;;;;;0.98;0.43;;;23.90;53.30;;;;;;4945116;28;20082;-48
2022/06/25 12:28:15;;;;;;;1.40;0.50;;;23.80;52.60;;;;;;4944917;28;20038;-49
2022/06/25 12:30:41;;;;;;;1.58;0.52;;;23.70;53.60;;;;;;4944752;28;20111;-49
2022/06/25 12:33:13;;;;;;;1.20;0.47;;;23.80;54.10;;;;;;4945052;28;20062;-49
2022/06/25 12:35:44;;;;;;;1.07;0.50;;;23.90;54.10;;;;;;4945070;28;20035;-48
2022/06/25 12:38:14;;;;;;;0.80;0.50;;;23.90;53.80;;;;;;4945091;28;20086;-48
2022/06/25 12:40:42;;;;;;;1.83;0.50;;;23.90;54.40;;;;;;4943663;29;20023;-48
2022/06/25 12:43:09;;;;;;;1.13;0.60;;;23.90;54.40;;;;;;4925736;28;20036;-47
2022/06/25 12:45:37;;;;;;;3.90;2.42;;;24.00;54.70;;;;;;4934584;29;20043;-48
2022/06/25 12:48:03;;;;;;;3.25;1.88;;;24.10;54.90;;;;;;4944505;28;20020;-47
2022/06/25 12:50:31;;;;;;;2.33;1.10;;;24.10;54.10;;;;;;4944447;28;20023;-48
2022/06/25 12:53:13;;;;;;;1.40;0.73;;;24.10;54.50;;;;;;4944052;28;20696;-48
2022/06/25 12:58:37;;;;;;;2.17;0.60;;;24.10;54.70;;;;;;5539168;23;20880;-50
2022/06/25 13:01:27;;;;;;;1.27;0.70;;;24.10;55.10;;;;;;4924988;29;20044;-48
2022/06/25 13:03:53;;;;;;;1.05;0.60;;;24.20;54.90;;;;;;4927345;28;20122;-45
2022/06/25 13:06:20;;;;;;;2.45;0.82;;;24.10;55.00;;;;;;4938483;29;20112;-46
2022/06/25 13:08:46;;;;;;;1.27;0.57;;;24.10;54.40;;;;;;4915010;29;20036;-49
2022/06/25 13:11:20;;;;;;;1.52;0.70;;;24.20;55.30;;;;;;4922416;29;20024;-47
2022/06/25 13:13:46;;;;;;;1.95;0.90;;;24.20;55.30;;;;;;4920926;29;20032;-47
2022/06/25 13:16:13;;;;;;;2.90;0.60;;;24.20;54.90;;;;;;4916646;29;20463;-46
2022/06/25 13:18:40;;;;;;;1.48;0.68;;;24.20;54.40;;;;;;4925001;29;20028;-47